Velindra — MCVG8 — position and weather

sailwx.info

Track history (hours):
 
Tides and Currents Weather Stations Pressure Air Temp Water Temp Dewpoint Dewpoint Depression Visibility Wind Speed Wind Dir Waves Ship Positions

Velindra

Last reported at 2017-Oct-25 01:54 UTC. Time now 2017-Dec-11 02:21 UTC.
Position S 27°52' E 153°22'.
Warning: this ship's position is 47 days out of date.

Length 11 m.

Type: Sailing vessel. MMSI: 235023885.

Date/timePositionNaut miles runAvg speedWind from/ knotsBaromVisibWave heightAir tempDewpointWater temp
2017-Oct-25 01:54S 27°52' E 153°22'0 0.0
2017-Oct-25 01:30S 27°52' E 153°22'1 2.9
2017-Oct-25 01:01S 27°52' E 153°24'2 3.2
2017-Oct-25 00:31S 27°50' E 153°24'2 3.5
2017-Oct-25 00:00S 27°49' E 153°25'2 3.5
2017-Oct-24 23:29S 27°47' E 153°26'0 0.0
2017-Oct-24 06:44S 27°48' E 153°26'0 0.0
2017-Oct-24 06:29S 27°48' E 153°26'0 0.0
2017-Oct-24 05:59S 27°48' E 153°26'0 0.0
2017-Oct-24 05:23S 27°48' E 153°26'0 0.0
2017-Oct-24 04:59S 27°48' E 153°26'0 0.0
2017-Oct-24 04:29S 27°48' E 153°26'0 0.0
2017-Oct-24 03:59S 27°48' E 153°26'0 0.0
2017-Oct-24 03:20S 27°48' E 153°26'0 0.0
2017-Oct-24 02:56S 27°48' E 153°26'0 0.0
2017-Oct-24 02:29S 27°48' E 153°26'0 0.0
2017-Oct-24 01:59S 27°48' E 153°26'0 0.0
2017-Oct-24 01:29S 27°48' E 153°26'0 0.0
2017-Oct-24 00:56S 27°48' E 153°26'0 0.0
2017-Oct-24 00:26S 27°48' E 153°26'1 2.6
2017-Oct-24 00:00S 27°46' E 153°26'2 3.5
2017-Oct-23 23:30S 27°45' E 153°26'1 2.7
2017-Oct-23 23:00S 27°44' E 153°24'0 0.9
2017-Oct-23 22:28S 27°43' E 153°24'0 0.0
2017-Oct-23 21:58S 27°43' E 153°24'0 0.0
2017-Oct-23 21:22S 27°43' E 153°24'0 0.0
2017-Oct-23 20:49S 27°43' E 153°24'0 0.0
2017-Oct-23 20:28S 27°43' E 153°24'0 0.0
2017-Oct-23 19:55S 27°43' E 153°24'0 0.0
2017-Oct-23 19:28S 27°43' E 153°24'0 0.0
2017-Oct-23 18:43S 27°43' E 153°24'0 0.0
2017-Oct-23 18:28S 27°43' E 153°24'0 0.0
2017-Oct-23 17:58S 27°43' E 153°24'0 0.0
2017-Oct-23 17:28S 27°43' E 153°24'0 0.0
2017-Oct-23 16:58S 27°43' E 153°24'0 0.0
2017-Oct-23 16:28S 27°43' E 153°24'0 0.0
2017-Oct-23 15:52S 27°43' E 153°24'0 0.0
2017-Oct-23 15:28S 27°43' E 153°24'0 0.0
2017-Oct-23 14:58S 27°43' E 153°24'0 0.0
2017-Oct-23 14:25S 27°43' E 153°24'0 0.0
2017-Oct-23 13:58S 27°43' E 153°24'0 0.0
2017-Oct-23 13:28S 27°43' E 153°24'0 0.0
2017-Oct-23 12:58S 27°43' E 153°24'0 0.0
2017-Oct-23 02:00S 27°43' E 153°24'0 0.0
2017-Oct-23 01:30S 27°43' E 153°24'1 2.3
2017-Oct-23 01:00S 27°42' E 153°24'3 5.0
2017-Oct-23 00:30S 27°40' E 153°24'2 3.9
2017-Oct-22 23:59S 27°38' E 153°25'  
2017-Oct-20 05:00S 27°15' E 153°11'3 6.1
2017-Oct-20 04:30S 27°12' E 153°09'3 6.5
2017-Oct-20 04:00S 27°10' E 153°07'2 3.9
2017-Oct-20 03:30S 27°12' E 153°06'  
Track history (hours):
 
Tides and Currents Weather Stations Pressure Air Temp Water Temp Dewpoint Dewpoint Depression Visibility Wind Speed Wind Dir Waves Ship Positions

Velindra

Last reported at 2017-Oct-25 01:54 UTC. Time now 2017-Dec-11 02:21 UTC.
Position S 27°52' E 153°22'.
Warning: this ship's position is 47 days out of date.

Length 11 m.

Type: Sailing vessel. MMSI: 235023885.

Date/timePositionNaut miles runAvg speedWind from/ knotsBaromVisibWave heightAir tempDewpointWater temp
2017-Oct-25 01:54S 27°52' E 153°22'0 0.0
2017-Oct-25 01:30S 27°52' E 153°22'1 2.9
2017-Oct-25 01:01S 27°52' E 153°24'2 3.2
2017-Oct-25 00:31S 27°50' E 153°24'2 3.5
2017-Oct-25 00:00S 27°49' E 153°25'2 3.5
2017-Oct-24 23:29S 27°47' E 153°26'0 0.0
2017-Oct-24 06:44S 27°48' E 153°26'0 0.0
2017-Oct-24 06:29S 27°48' E 153°26'0 0.0
2017-Oct-24 05:59S 27°48' E 153°26'0 0.0
2017-Oct-24 05:23S 27°48' E 153°26'0 0.0
2017-Oct-24 04:59S 27°48' E 153°26'0 0.0
2017-Oct-24 04:29S 27°48' E 153°26'0 0.0
2017-Oct-24 03:59S 27°48' E 153°26'0 0.0
2017-Oct-24 03:20S 27°48' E 153°26'0 0.0
2017-Oct-24 02:56S 27°48' E 153°26'0 0.0
2017-Oct-24 02:29S 27°48' E 153°26'0 0.0
2017-Oct-24 01:59S 27°48' E 153°26'0 0.0
2017-Oct-24 01:29S 27°48' E 153°26'0 0.0
2017-Oct-24 00:56S 27°48' E 153°26'0 0.0
2017-Oct-24 00:26S 27°48' E 153°26'1 2.6
2017-Oct-24 00:00S 27°46' E 153°26'2 3.5
2017-Oct-23 23:30S 27°45' E 153°26'1 2.7
2017-Oct-23 23:00S 27°44' E 153°24'0 0.9
2017-Oct-23 22:28S 27°43' E 153°24'0 0.0
2017-Oct-23 21:58S 27°43' E 153°24'0 0.0
2017-Oct-23 21:22S 27°43' E 153°24'0 0.0
2017-Oct-23 20:49S 27°43' E 153°24'0 0.0
2017-Oct-23 20:28S 27°43' E 153°24'0 0.0
2017-Oct-23 19:55S 27°43' E 153°24'0 0.0
2017-Oct-23 19:28S 27°43' E 153°24'0 0.0
2017-Oct-23 18:43S 27°43' E 153°24'0 0.0
2017-Oct-23 18:28S 27°43' E 153°24'0 0.0
2017-Oct-23 17:58S 27°43' E 153°24'0 0.0
2017-Oct-23 17:28S 27°43' E 153°24'0 0.0
2017-Oct-23 16:58S 27°43' E 153°24'0 0.0
2017-Oct-23 16:28S 27°43' E 153°24'0 0.0
2017-Oct-23 15:52S 27°43' E 153°24'0 0.0
2017-Oct-23 15:28S 27°43' E 153°24'0 0.0
2017-Oct-23 14:58S 27°43' E 153°24'0 0.0
2017-Oct-23 14:25S 27°43' E 153°24'0 0.0
2017-Oct-23 13:58S 27°43' E 153°24'0 0.0
2017-Oct-23 13:28S 27°43' E 153°24'0 0.0
2017-Oct-23 12:58S 27°43' E 153°24'0 0.0
2017-Oct-23 02:00S 27°43' E 153°24'0 0.0
2017-Oct-23 01:30S 27°43' E 153°24'1 2.3
2017-Oct-23 01:00S 27°42' E 153°24'3 5.0
2017-Oct-23 00:30S 27°40' E 153°24'2 3.9
2017-Oct-22 23:59S 27°38' E 153°25'  
2017-Oct-20 05:00S 27°15' E 153°11'3 6.1
2017-Oct-20 04:30S 27°12' E 153°09'3 6.5
2017-Oct-20 04:00S 27°10' E 153°07'2 3.9
2017-Oct-20 03:30S 27°12' E 153°06'  

Dump ship's entire track history